Time,TemperatureF,DewpointF,PressureIn,WindDirection,WindDirectionDegrees,WindSpeedMPH,WindSpeedGustMPH,Humidity,HourlyPrecipIn,Conditions,Clouds,dailyrainin,SoftwareType,DateUTC
2013-08-24 00:01:00,72.5,66.7,29.15,South,180,1.1,0.0,82,0.00,CLR,,0.00,WeatherDisplay:10.37,2013-08-24 05:01:00,
2013-08-24 00:06:00,72.3,66.9,29.14,South,180,0.0,0.0,83,0.00,CLR,,0.00,WeatherDisplay:10.37,2013-08-24 05:06:00,
2013-08-24 00:11:00,72.3,66.9,29.15,South,180,0.0,0.0,83,0.00,CLR,,0.00,WeatherDisplay:10.37,2013-08-24 05:11:00,
2013-08-24 00:16:00,72.3,66.5,29.15,SE,135,11.5,0.0,82,0.00,CLR,,0.00,WeatherDisplay:10.37,2013-08-24 05:16:00,
2013-08-24 00:21:00,72.3,66.5,29.15,South,180,0.0,0.0,82,0.00,CLR,,0.00,WeatherDisplay:10.37,2013-08-24 05:21:00,
2013-08-24 00:26:00,72.1,66.7,29.15,South,180,1.1,0.0,83,0.00,CLR,,0.00,WeatherDisplay:10.37,2013-08-24 05:26:00,
2013-08-24 00:31:00,72.1,66.7,29.15,South,180,0.0,0.0,83,0.00,CLR,,0.00,WeatherDisplay:10.37,2013-08-24 05:31:00,
2013-08-24 00:36:00,72.1,66.7,29.15,South,180,0.0,0.0,83,0.00,CLR,,0.00,WeatherDisplay:10.37,2013-08-24 05:36:00,
2013-08-24 00:41:00,72.0,66.2,29.15,South,180,0.0,0.0,82,0.00,CLR,,0.00,WeatherDisplay:10.37,2013-08-24 05:41:00,
2013-08-24 00:46:00,72.0,66.9,29.15,South,180,0.0,0.0,84,0.00,CLR,,0.00,WeatherDisplay:10.37,2013-08-24 05:46:00,
2013-08-24 00:51:00,71.6,66.2,29.15,South,180,0.0,0.0,83,0.00,CLR,,0.00,WeatherDisplay:10.37,2013-08-24 05:51:00,
2013-08-24 00:56:00,71.6,66.2,29.15,South,180,0.0,0.0,83,0.00,CLR,,0.00,WeatherDisplay:10.37,2013-08-24 05:56:00,
2013-08-24 01:01:00,71.6,66.2,29.14,South,180,0.0,0.0,83,0.00,CLR,,0.00,WeatherDisplay:10.37,2013-08-24 06:01:00,
2013-08-24 01:06:00,71.6,66.5,29.15,South,180,0.0,0.0,84,0.00,CLR,,0.00,WeatherDisplay:10.37,2013-08-24 06:06:00,
2013-08-24 01:11:00,71.2,65.8,29.15,South,180,0.0,0.0,83,0.00,CLR,,0.00,WeatherDisplay:10.37,2013-08-24 06:11:00,
2013-08-24 01:16:00,71.4,66.0,29.15,South,180,0.0,0.0,83,0.00,CLR,,0.00,WeatherDisplay:10.37,2013-08-24 06:16:00,
2013-08-24 01:21:00,71.4,65.6,29.14,South,180,0.0,0.0,82,0.00,CLR,,0.00,WeatherDisplay:10.37,2013-08-24 06:21:00,
2013-08-24 01:26:00,71.4,65.6,29.15,South,180,0.0,0.0,82,0.00,CLR,,0.00,WeatherDisplay:10.37,2013-08-24 06:26:00,
2013-08-24 01:31:00,71.2,65.1,29.15,South,180,0.0,0.0,81,0.00,CLR,,0.00,WeatherDisplay:10.37,2013-08-24 06:31:00,
2013-08-24 01:36:00,71.1,64.9,29.15,South,180,0.0,0.0,81,0.00,CLR,,0.00,WeatherDisplay:10.37,2013-08-24 06:36:00,
2013-08-24 01:41:00,71.2,65.1,29.15,South,180,0.0,0.0,81,0.00,CLR,,0.00,WeatherDisplay:10.37,2013-08-24 06:41:00,
2013-08-24 01:46:00,70.9,65.1,29.16,South,180,0.0,0.0,82,0.00,CLR,,0.00,WeatherDisplay:10.37,2013-08-24 06:46:00,
2013-08-24 01:51:00,70.9,64.8,29.15,South,180,0.0,0.0,81,0.00,CLR,,0.00,WeatherDisplay:10.37,2013-08-24 06:51:00,
2013-08-24 01:56:00,70.9,64.4,29.15,South,180,0.0,0.0,80,0.00,CLR,,0.00,WeatherDisplay:10.37,2013-08-24 06:56:00,
2013-08-24 02:01:00,70.7,65.3,29.15,SW,225,0.0,0.0,83,0.00,CLR,,0.00,WeatherDisplay:10.37,2013-08-24 07:01:00,
2013-08-24 02:06:00,70.7,65.3,29.15,SW,225,0.0,0.0,83,0.00,CLR,,0.00,WeatherDisplay:10.37,2013-08-24 07:06:00,
2013-08-24 02:11:00,70.0,64.6,29.15,South,180,0.0,0.0,83,0.00,CLR,,0.00,WeatherDisplay:10.37,2013-08-24 07:11:00,
2013-08-24 02:16:00,69.8,64.4,29.16,South,180,0.0,0.0,83,0.00,CLR,,0.00,WeatherDisplay:10.37,2013-08-24 07:16:00,
2013-08-24 02:21:00,69.6,64.2,29.16,South,180,0.0,0.0,83,0.00,CLR,,0.00,WeatherDisplay:10.37,2013-08-24 07:21:00,
2013-08-24 02:26:00,69.4,63.7,29.16,South,180,0.0,0.0,82,0.00,CLR,,0.00,WeatherDisplay:10.37,2013-08-24 07:26:00,
2013-08-24 02:31:00,69.4,64.0,29.16,SE,135,0.0,0.0,83,0.00,CLR,,0.00,WeatherDisplay:10.37,2013-08-24 07:31:00,
2013-08-24 02:36:00,69.3,63.5,29.16,SE,135,0.0,0.0,82,0.00,CLR,,0.00,WeatherDisplay:10.37,2013-08-24 07:36:00,
2013-08-24 02:41:00,69.3,63.5,29.16,SE,135,0.0,0.0,82,0.00,CLR,,0.00,WeatherDisplay:10.37,2013-08-24 07:41:00,
2013-08-24 02:46:00,69.1,63.4,29.16,SSE,158,0.0,0.0,82,0.00,CLR,,0.00,WeatherDisplay:10.37,2013-08-24 07:46:00,
2013-08-24 02:51:00,69.1,64.0,29.16,SE,135,0.0,0.0,84,0.00,CLR,,0.00,WeatherDisplay:10.37,2013-08-24 07:51:00,
2013-08-24 02:56:00,69.1,63.7,29.16,SE,135,0.0,0.0,83,0.00,CLR,,0.00,WeatherDisplay:10.37,2013-08-24 07:56:00,
2013-08-24 03:01:00,69.1,63.7,29.16,South,180,0.0,0.0,83,0.00,CLR,,0.00,WeatherDisplay:10.37,2013-08-24 08:01:00,
2013-08-24 03:06:00,69.1,63.4,29.16,SE,135,0.0,0.0,82,0.00,CLR,,0.00,WeatherDisplay:10.37,2013-08-24 08:06:00,
2013-08-24 03:11:00,69.3,63.5,29.16,East,90,0.0,0.0,82,0.00,CLR,,0.00,WeatherDisplay:10.37,2013-08-24 08:11:00,
2013-08-24 03:16:00,69.3,62.8,29.16,South,180,0.0,0.0,80,0.00,CLR,,0.00,WeatherDisplay:10.37,2013-08-24 08:16:00,
2013-08-24 03:21:00,69.3,62.8,29.17,South,180,0.0,0.0,80,0.00,CLR,,0.00,WeatherDisplay:10.37,2013-08-24 08:21:00,
2013-08-24 03:26:00,69.3,63.2,29.17,SE,135,0.0,0.0,81,0.00,CLR,,0.00,WeatherDisplay:10.37,2013-08-24 08:26:00,
2013-08-24 03:31:00,69.3,63.2,29.17,SE,135,0.0,0.0,81,0.00,CLR,,0.00,WeatherDisplay:10.37,2013-08-24 08:31:00,
2013-08-24 03:36:00,69.1,62.6,29.16,SE,135,0.0,0.0,80,0.00,CLR,,0.00,WeatherDisplay:10.37,2013-08-24 08:36:00,
2013-08-24 03:41:00,68.9,62.8,29.17,SE,135,0.0,0.0,81,0.00,CLR,,0.00,WeatherDisplay:10.37,2013-08-24 08:41:00,
2013-08-24 03:46:00,68.9,62.8,29.17,SE,135,0.0,0.0,81,0.00,CLR,,0.00,WeatherDisplay:10.37,2013-08-24 08:46:00,
2013-08-24 03:51:00,68.9,63.2,29.17,South,180,0.0,0.0,82,0.00,CLR,,0.00,WeatherDisplay:10.37,2013-08-24 08:51:00,
2013-08-24 03:56:00,68.9,62.8,29.17,SE,135,1.1,0.0,81,0.00,CLR,,0.00,WeatherDisplay:10.37,2013-08-24 08:56:00,
2013-08-24 04:01:00,68.7,62.7,29.17,SE,135,0.0,0.0,81,0.00,CLR,,0.00,WeatherDisplay:10.37,2013-08-24 09:01:00,
2013-08-24 04:06:00,68.5,62.8,29.18,South,180,0.0,0.0,82,0.00,CLR,,0.00,WeatherDisplay:10.37,2013-08-24 09:06:00,
2013-08-24 04:11:00,68.5,62.8,29.18,South,180,0.0,0.0,82,0.00,CLR,,0.00,WeatherDisplay:10.37,2013-08-24 09:11:00,
2013-08-24 04:16:00,68.7,62.7,29.18,SE,135,0.0,0.0,81,0.00,CLR,,0.00,WeatherDisplay:10.37,2013-08-24 09:16:00,
2013-08-24 04:21:00,68.5,62.5,29.18,South,180,0.0,0.0,81,0.00,CLR,,0.00,WeatherDisplay:10.37,2013-08-24 09:21:00,
2013-08-24 04:26:00,68.5,62.8,29.18,South,180,0.0,0.0,82,0.00,CLR,,0.00,WeatherDisplay:10.37,2013-08-24 09:26:00,
2013-08-24 04:31:00,68.9,63.2,29.18,SE,135,0.0,0.0,82,0.00,CLR,,0.00,WeatherDisplay:10.37,2013-08-24 09:31:00,
2013-08-24 04:36:00,69.3,62.8,29.18,South,180,0.0,0.0,80,0.00,CLR,,0.00,WeatherDisplay:10.37,2013-08-24 09:36:00,
2013-08-24 04:41:00,69.4,63.4,29.19,SW,225,0.0,0.0,81,0.00,CLR,,0.00,WeatherDisplay:10.37,2013-08-24 09:41:00,
2013-08-24 04:46:00,68.9,63.2,29.18,SE,135,0.0,0.0,82,0.00,CLR,,0.00,WeatherDisplay:10.37,2013-08-24 09:46:00,
2013-08-24 04:51:00,68.7,63.0,29.17,SSE,158,13.8,13.8,82,0.00,CLR,,0.00,WeatherDisplay:10.37,2013-08-24 09:51:00,
2013-08-24 04:56:00,68.7,62.7,29.18,SSE,158,0.0,0.0,81,0.00,CLR,,0.00,WeatherDisplay:10.37,2013-08-24 09:56:00,
2013-08-24 05:01:00,68.5,62.8,29.18,South,180,0.0,0.0,82,0.00,CLR,,0.00,WeatherDisplay:10.37,2013-08-24 10:01:00,
2013-08-24 05:06:00,68.5,62.8,29.18,South,180,0.0,0.0,82,0.00,CLR,,0.00,WeatherDisplay:10.37,2013-08-24 10:06:00,
2013-08-24 05:11:00,68.5,62.5,29.18,South,180,0.0,0.0,81,0.00,CLR,,0.00,WeatherDisplay:10.37,2013-08-24 10:11:00,
2013-08-24 05:16:00,68.4,62.3,29.18,South,180,0.0,0.0,81,0.00,CLR,,0.00,WeatherDisplay:10.37,2013-08-24 10:16:00,
2013-08-24 05:21:00,68.5,62.1,29.18,South,180,2.3,3.1,80,0.00,CLR,,0.00,WeatherDisplay:10.37,2013-08-24 10:21:00,
2013-08-24 05:26:00,68.7,61.6,29.18,South,180,12.7,12.7,78,0.00,CLR,,0.00,WeatherDisplay:10.37,2013-08-24 10:26:00,
2013-08-24 05:31:00,68.7,61.6,29.18,South,180,15.0,15.0,78,0.00,CLR,,0.00,WeatherDisplay:10.37,2013-08-24 10:31:00,
2013-08-24 05:36:00,68.7,60.8,29.18,South,180,12.7,12.7,76,0.00,CLR,,0.00,WeatherDisplay:10.37,2013-08-24 10:36:00,
2013-08-24 05:41:00,68.9,61.4,29.18,South,180,15.0,15.0,77,0.00,CLR,,0.00,WeatherDisplay:10.37,2013-08-24 10:41:00,
2013-08-24 05:46:00,68.7,60.1,29.18,SW,225,15.0,15.0,74,0.00,CLR,,0.00,WeatherDisplay:10.37,2013-08-24 10:46:00,
2013-08-24 05:51:00,68.9,61.0,29.18,South,180,10.4,10.4,76,0.00,CLR,,0.00,WeatherDisplay:10.37,2013-08-24 10:51:00,
2013-08-24 05:56:00,68.7,60.8,29.17,South,180,11.5,11.5,76,0.00,CLR,,0.00,WeatherDisplay:10.37,2013-08-24 10:56:00,
2013-08-24 06:01:00,68.5,59.5,29.18,SW,225,16.1,16.1,73,0.00,CLR,,0.00,WeatherDisplay:10.37,2013-08-24 11:01:00,
2013-08-24 06:06:00,68.5,59.5,29.18,SW,225,16.1,16.1,73,0.00,CLR,,0.00,WeatherDisplay:10.37,2013-08-24 11:06:00,
2013-08-24 06:11:00,68.5,59.5,29.18,South,180,0.0,0.0,73,0.00,CLR,,0.00,WeatherDisplay:10.37,2013-08-24 11:11:00,
2013-08-24 06:16:00,68.5,59.9,29.18,SW,225,1.1,0.0,74,0.00,CLR,,0.00,WeatherDisplay:10.37,2013-08-24 11:16:00,
2013-08-24 06:21:00,68.5,59.9,29.19,South,180,0.0,0.0,74,0.00,CLR,,0.00,WeatherDisplay:10.37,2013-08-24 11:21:00,
2013-08-24 06:26:00,68.5,59.9,29.18,South,180,1.1,0.0,74,0.00,CLR,,0.00,WeatherDisplay:10.37,2013-08-24 11:26:00,
2013-08-24 06:31:00,68.5,59.2,29.19,South,180,0.0,0.0,72,0.00,CLR,,0.00,WeatherDisplay:10.37,2013-08-24 11:31:00,
2013-08-24 06:36:00,68.5,59.5,29.19,South,180,1.1,0.0,73,0.00,CLR,,0.00,WeatherDisplay:10.37,2013-08-24 11:36:00,
2013-08-24 06:41:00,68.5,59.2,29.19,South,180,1.1,0.0,72,0.00,CLR,,0.00,WeatherDisplay:10.37,2013-08-24 11:41:00,
2013-08-24 06:46:00,68.5,59.2,29.19,SW,225,1.1,6.0,72,0.00,CLR,,0.00,WeatherDisplay:10.37,2013-08-24 11:46:00,
2013-08-24 06:51:00,68.5,59.5,29.19,South,180,15.0,15.0,73,0.00,CLR,,0.00,WeatherDisplay:10.37,2013-08-24 11:51:00,
2013-08-24 06:56:00,68.5,58.0,29.19,South,180,13.8,13.8,69,0.00,CLR,,0.00,WeatherDisplay:10.37,2013-08-24 11:56:00,
2013-08-24 07:01:00,68.7,59.3,29.19,South,180,12.7,12.7,72,0.00,CLR,,0.00,WeatherDisplay:10.37,2013-08-24 12:01:00,
2013-08-24 07:06:00,68.7,58.9,29.20,South,180,0.0,0.0,71,0.00,CLR,,0.00,WeatherDisplay:10.37,2013-08-24 12:06:00,
2013-08-24 07:11:00,68.7,58.5,29.20,South,180,0.0,0.0,70,0.00,CLR,,0.00,WeatherDisplay:10.37,2013-08-24 12:11:00,
2013-08-24 07:16:00,68.9,58.7,29.20,SSE,158,0.0,0.0,70,0.00,CLR,,0.00,WeatherDisplay:10.37,2013-08-24 12:16:00,
2013-08-24 07:21:00,68.9,58.7,29.20,South,180,1.1,0.0,70,0.00,CLR,,0.00,WeatherDisplay:10.37,2013-08-24 12:21:00,
2013-08-24 07:26:00,68.9,58.3,29.20,South,180,0.0,0.0,69,0.00,CLR,,0.00,WeatherDisplay:10.37,2013-08-24 12:26:00,
2013-08-24 07:31:00,69.1,58.5,29.20,South,180,1.1,0.0,69,0.00,CLR,,0.00,WeatherDisplay:10.37,2013-08-24 12:31:00,
2013-08-24 07:36:00,69.1,58.5,29.20,South,180,0.0,0.0,69,0.00,CLR,,0.00,WeatherDisplay:10.37,2013-08-24 12:36:00,
2013-08-24 07:41:00,69.4,59.2,29.19,South,180,0.0,6.9,70,0.00,CLR,,0.00,WeatherDisplay:10.37,2013-08-24 12:41:00,
2013-08-24 07:46:00,69.4,58.4,29.20,SW,225,15.0,0.0,68,0.00,CLR,,0.00,WeatherDisplay:10.37,2013-08-24 12:46:00,
2013-08-24 07:51:00,69.6,58.6,29.20,South,180,1.1,0.0,68,0.00,CLR,,0.00,WeatherDisplay:10.37,2013-08-24 12:51:00,
2013-08-24 07:56:00,69.4,57.6,29.20,South,180,13.8,13.8,66,0.00,CLR,,0.00,WeatherDisplay:10.37,2013-08-24 12:56:00,
2013-08-24 08:01:00,69.6,57.3,29.20,South,180,1.1,0.0,65,0.00,CLR,,0.00,WeatherDisplay:10.37,2013-08-24 13:01:00,
2013-08-24 08:06:00,69.8,57.5,29.20,South,180,17.3,17.3,65,0.00,CLR,,0.00,WeatherDisplay:10.37,2013-08-24 13:06:00,
2013-08-24 08:11:00,70.0,57.2,29.20,South,180,17.3,17.3,64,0.00,CLR,,0.00,WeatherDisplay:10.37,2013-08-24 13:11:00,
2013-08-24 08:16:00,70.0,58.5,29.20,South,180,8.1,0.0,67,0.00,CLR,,0.00,WeatherDisplay:10.37,2013-08-24 13:16:00,
2013-08-24 08:21:00,70.0,56.8,29.20,South,180,0.0,0.0,63,0.00,CLR,,0.00,WeatherDisplay:10.37,2013-08-24 13:21:00,
2013-08-24 08:26:00,70.3,58.0,29.20,SE,135,0.0,0.0,65,0.00,CLR,,0.00,WeatherDisplay:10.37,2013-08-24 13:26:00,
2013-08-24 08:31:00,70.5,57.3,29.20,South,180,1.1,0.0,63,0.00,CLR,,0.00,WeatherDisplay:10.37,2013-08-24 13:31:00,
2013-08-24 08:36:00,71.2,57.5,29.20,SE,135,0.0,0.0,62,0.00,CLR,,0.00,WeatherDisplay:10.37,2013-08-24 13:36:00,
2013-08-24 08:41:00,71.6,57.0,29.20,South,180,15.0,0.0,60,0.00,CLR,,0.00,WeatherDisplay:10.37,2013-08-24 13:41:00,
2013-08-24 08:46:00,71.6,56.5,29.20,South,180,0.0,0.0,59,0.00,CLR,,0.00,WeatherDisplay:10.37,2013-08-24 13:46:00,
2013-08-24 08:51:00,71.4,56.8,29.21,SW,225,0.0,0.0,60,0.00,CLR,,0.00,WeatherDisplay:10.37,2013-08-24 13:51:00,
2013-08-24 08:56:00,71.4,56.3,29.21,SW,225,1.1,0.0,59,0.00,CLR,,0.00,WeatherDisplay:10.37,2013-08-24 13:56:00,
2013-08-24 09:01:00,71.2,55.7,29.21,SW,225,1.1,0.0,58,0.00,CLR,,0.00,WeatherDisplay:10.37,2013-08-24 14:01:00,
2013-08-24 09:06:00,71.2,55.7,29.22,SW,225,1.1,0.0,58,0.00,CLR,,0.00,WeatherDisplay:10.37,2013-08-24 14:06:00,
2013-08-24 09:11:00,71.2,56.2,29.22,SW,225,0.0,0.0,59,0.00,CLR,,0.00,WeatherDisplay:10.37,2013-08-24 14:11:00,
2013-08-24 09:16:00,70.9,55.8,29.21,SW,225,0.0,0.0,59,0.00,CLR,,0.00,WeatherDisplay:10.37,2013-08-24 14:16:00,
2013-08-24 09:21:00,71.1,56.5,29.20,South,180,0.0,0.0,60,0.00,CLR,,0.00,WeatherDisplay:10.37,2013-08-24 14:21:00,
2013-08-24 09:26:00,70.5,55.5,29.21,SW,225,1.1,0.0,59,0.00,CLR,,0.00,WeatherDisplay:10.37,2013-08-24 14:26:00,
2013-08-24 09:31:00,69.1,56.4,29.21,SW,225,0.0,0.0,64,0.00,CLR,,0.00,WeatherDisplay:10.37,2013-08-24 14:31:00,
2013-08-24 09:36:00,68.5,57.6,29.21,South,180,0.0,0.0,68,0.00,CLR,,0.00,WeatherDisplay:10.37,2013-08-24 14:36:00,
2013-08-24 09:41:00,68.0,57.4,29.21,SW,225,0.0,0.0,69,0.00,CLR,,0.00,WeatherDisplay:10.37,2013-08-24 14:41:00,
2013-08-24 09:46:00,67.1,57.8,29.20,South,180,0.0,0.0,72,0.01,RA,,0.01,WeatherDisplay:10.37,2013-08-24 14:46:00,
2013-08-24 09:51:00,66.9,58.0,29.21,SW,225,0.0,0.0,73,0.01,RA,,0.01,WeatherDisplay:10.37,2013-08-24 14:51:00,
2013-08-24 09:56:00,67.1,58.5,29.20,SW,225,0.0,0.0,74,0.01,,,0.01,WeatherDisplay:10.37,2013-08-24 14:56:00,
2013-08-24 10:01:00,67.3,56.8,29.20,South,180,0.0,0.0,69,0.02,RA,,0.02,WeatherDisplay:10.37,2013-08-24 15:01:00,
2013-08-24 10:06:00,66.9,57.2,29.21,South,180,16.8,16.8,71,0.02,RA,,0.02,WeatherDisplay:10.37,2013-08-24 15:06:00,
2013-08-24 10:11:00,66.4,58.2,29.21,South,180,17.3,17.3,75,0.02,CLR,,0.02,WeatherDisplay:10.37,2013-08-24 15:11:00,
2013-08-24 10:16:00,65.3,57.9,29.20,South,180,17.3,17.3,77,0.02,CLR,,0.02,WeatherDisplay:10.37,2013-08-24 15:16:00,
2013-08-24 10:21:00,66.7,61.1,29.21,South,180,12.7,12.7,82,0.02,CLR,,0.02,WeatherDisplay:10.37,2013-08-24 15:21:00,
2013-08-24 10:26:00,63.9,60.9,29.20,SW,225,12.7,12.7,90,0.02,CLR,,0.05,WeatherDisplay:10.37,2013-08-24 15:26:00,
2013-08-24 10:31:00,64.6,63.7,29.20,South,180,13.8,13.8,97,0.05,RA,,0.06,WeatherDisplay:10.37,2013-08-24 15:31:00,
2013-08-24 10:36:00,65.5,64.3,29.20,South,180,15.0,15.0,96,0.08,RA,,0.08,WeatherDisplay:10.37,2013-08-24 15:36:00,
2013-08-24 10:41:00,66.4,65.8,29.19,South,180,15.0,15.0,98,0.08,RA,,0.08,WeatherDisplay:10.37,2013-08-24 15:41:00,
2013-08-24 10:46:00,68.2,67.6,29.19,South,180,15.0,15.0,98,0.07,,,0.08,WeatherDisplay:10.37,2013-08-24 15:46:00,
2013-08-24 10:51:00,68.9,65.5,29.19,South,180,18.4,18.4,89,0.07,CLR,,0.08,WeatherDisplay:10.37,2013-08-24 15:51:00,
2013-08-24 10:56:00,69.8,67.1,29.18,South,180,21.3,21.3,91,0.07,CLR,,0.08,WeatherDisplay:10.37,2013-08-24 15:56:00,
2013-08-24 11:01:00,71.1,66.3,29.18,South,180,20.7,20.7,85,0.06,CLR,,0.08,WeatherDisplay:10.37,2013-08-24 16:01:00,
2013-08-24 11:06:00,71.1,63.5,29.19,South,180,20.7,20.7,77,0.06,CLR,,0.08,WeatherDisplay:10.37,2013-08-24 16:06:00,
2013-08-24 11:11:00,71.2,64.8,29.18,South,180,18.4,18.4,80,0.06,CLR,,0.08,WeatherDisplay:10.37,2013-08-24 16:11:00,
2013-08-24 11:16:00,71.2,64.8,29.18,North,8,18.4,18.4,80,0.06,CLR,,0.08,WeatherDisplay:10.37,2013-08-24 16:16:00,
2013-08-24 11:21:00,69.4,61.9,29.19,South,180,17.3,17.3,77,0.06,CLR,,0.08,WeatherDisplay:10.37,2013-08-24 16:21:00,
2013-08-24 11:26:00,68.9,62.5,29.19,South,180,17.3,17.3,80,0.04,CLR,,0.08,WeatherDisplay:10.37,2013-08-24 16:26:00,
2013-08-24 11:31:00,68.2,62.5,29.19,South,180,19.6,19.6,82,0.02,CLR,,0.08,WeatherDisplay:10.37,2013-08-24 16:31:00,
2013-08-24 11:36:00,68.9,62.8,29.18,SSE,158,20.7,20.7,81,0.00,CLR,,0.08,WeatherDisplay:10.37,2013-08-24 16:36:00,
2013-08-24 11:41:00,69.4,63.7,29.18,South,180,16.1,16.1,82,0.00,CLR,,0.08,WeatherDisplay:10.37,2013-08-24 16:41:00,
2013-08-24 11:46:00,69.1,63.4,29.18,South,180,17.3,17.3,82,0.02,RA,,0.11,WeatherDisplay:10.37,2013-08-24 16:46:00,
2013-08-24 11:51:00,68.9,62.8,29.18,South,180,17.3,17.3,81,0.02,RA,,0.11,WeatherDisplay:10.37,2013-08-24 16:51:00,
2013-08-24 11:56:00,68.9,62.5,29.18,SW,225,19.6,19.6,80,0.02,CLR,,0.11,WeatherDisplay:10.37,2013-08-24 16:56:00,
2013-08-24 12:01:00,69.3,62.1,29.18,South,180,17.3,17.3,78,0.02,CLR,,0.11,WeatherDisplay:10.37,2013-08-24 17:01:00,
2013-08-24 12:06:00,69.3,62.1,29.18,South,180,15.0,15.0,78,0.02,CLR,,0.11,WeatherDisplay:10.37,2013-08-24 17:06:00,
2013-08-24 12:11:00,69.8,62.6,29.17,South,180,13.7,13.7,78,0.02,CLR,,0.11,WeatherDisplay:10.37,2013-08-24 17:11:00,
2013-08-24 12:16:00,70.9,63.7,29.17,South,180,15.0,15.0,78,0.02,CLR,,0.11,WeatherDisplay:10.37,2013-08-24 17:16:00,
2013-08-24 12:21:00,71.2,63.7,29.16,SE,135,0.0,0.0,77,0.02,CLR,,0.11,WeatherDisplay:10.37,2013-08-24 17:21:00,
2013-08-24 12:26:00,71.6,64.0,29.16,South,180,18.4,18.4,77,0.02,CLR,,0.11,WeatherDisplay:10.37,2013-08-24 17:26:00,
2013-08-24 12:31:00,72.1,63.4,29.17,SE,135,18.4,18.4,74,0.02,CLR,,0.11,WeatherDisplay:10.37,2013-08-24 17:31:00,
2013-08-24 12:36:00,72.5,64.1,29.16,South,180,20.7,20.7,75,0.02,CLR,,0.11,WeatherDisplay:10.37,2013-08-24 17:36:00,
2013-08-24 12:41:00,72.7,64.3,29.16,South,180,23.0,23.0,75,0.06,RA,,0.14,WeatherDisplay:10.37,2013-08-24 17:41:00,
2013-08-24 12:46:00,72.7,63.5,29.16,South,180,21.9,21.9,73,0.04,RA,,0.14,WeatherDisplay:10.37,2013-08-24 17:46:00,
2013-08-24 12:51:00,72.7,63.9,29.16,South,180,23.0,23.0,74,0.04,CLR,,0.14,WeatherDisplay:10.37,2013-08-24 17:51:00,
2013-08-24 12:56:00,72.9,64.5,29.16,South,180,21.9,21.9,75,0.04,CLR,,0.14,WeatherDisplay:10.37,2013-08-24 17:56:00,
2013-08-24 13:01:00,72.9,63.7,29.16,South,180,20.7,20.7,73,0.04,CLR,,0.14,WeatherDisplay:10.37,2013-08-24 18:01:00,
2013-08-24 13:06:00,73.4,64.6,29.16,South,180,19.6,19.6,74,0.04,CLR,,0.14,WeatherDisplay:10.37,2013-08-24 18:06:00,
2013-08-24 13:11:00,73.4,64.6,29.16,South,180,19.6,19.6,74,0.04,CLR,,0.14,WeatherDisplay:10.37,2013-08-24 18:11:00,
2013-08-24 13:16:00,73.9,65.9,29.16,SW,225,17.3,17.3,76,0.04,CLR,,0.14,WeatherDisplay:10.37,2013-08-24 18:16:00,
2013-08-24 13:21:00,74.5,66.0,29.15,South,180,17.3,17.3,75,0.04,CLR,,0.14,WeatherDisplay:10.37,2013-08-24 18:21:00,
2013-08-24 13:26:00,74.7,65.8,29.15,South,180,18.4,18.4,74,0.04,CLR,,0.14,WeatherDisplay:10.37,2013-08-24 18:26:00,
2013-08-24 13:31:00,75.4,66.9,29.15,SE,135,1.1,0.0,75,0.04,CLR,,0.14,WeatherDisplay:10.37,2013-08-24 18:31:00,
2013-08-24 13:36:00,75.7,66.9,29.15,South,180,13.8,13.8,74,0.04,CLR,,0.14,WeatherDisplay:10.37,2013-08-24 18:36:00,
2013-08-24 13:41:00,76.5,67.9,29.14,South,180,13.8,0.0,75,0.00,CLR,,0.14,WeatherDisplay:10.37,2013-08-24 18:41:00,
2013-08-24 13:46:00,76.3,67.4,29.14,SSE,158,10.4,0.0,74,0.00,CLR,,0.14,WeatherDisplay:10.37,2013-08-24 18:46:00,
2013-08-24 13:51:00,76.6,67.3,29.13,South,180,17.3,17.3,73,0.00,CLR,,0.14,WeatherDisplay:10.37,2013-08-24 18:51:00,
2013-08-24 13:56:00,77.5,68.2,29.13,South,180,10.4,0.0,73,0.00,CLR,,0.14,WeatherDisplay:10.37,2013-08-24 18:56:00,
2013-08-24 14:01:00,77.7,68.0,29.13,South,180,2.3,0.0,72,0.00,CLR,,0.14,WeatherDisplay:10.37,2013-08-24 19:01:00,
2013-08-24 14:06:00,77.7,67.6,29.13,South,180,20.7,20.7,71,0.00,CLR,,0.14,WeatherDisplay:10.37,2013-08-24 19:06:00,
2013-08-24 14:11:00,77.7,68.0,29.13,South,180,19.6,19.6,72,0.00,CLR,,0.14,WeatherDisplay:10.37,2013-08-24 19:11:00,
2013-08-24 14:16:00,78.1,68.3,29.12,SSE,158,17.3,17.3,72,0.00,CLR,,0.14,WeatherDisplay:10.37,2013-08-24 19:16:00,
2013-08-24 14:21:00,78.3,68.1,29.12,South,180,20.7,20.7,71,0.00,CLR,,0.14,WeatherDisplay:10.37,2013-08-24 19:21:00,
2013-08-24 14:26:00,78.4,68.3,29.12,South,180,19.6,19.6,71,0.00,CLR,,0.14,WeatherDisplay:10.37,2013-08-24 19:26:00,
2013-08-24 14:31:00,78.8,68.6,29.12,South,180,14.5,14.5,71,0.00,CLR,,0.14,WeatherDisplay:10.37,2013-08-24 19:31:00,
2013-08-24 14:36:00,79.0,69.2,29.12,South,180,15.0,0.0,72,0.00,CLR,,0.14,WeatherDisplay:10.37,2013-08-24 19:36:00,
2013-08-24 14:41:00,79.0,69.2,29.12,South,180,17.3,17.3,72,0.00,CLR,,0.14,WeatherDisplay:10.37,2013-08-24 19:41:00,
2013-08-24 14:46:00,79.2,69.4,29.12,South,180,18.4,18.4,72,0.00,CLR,,0.14,WeatherDisplay:10.37,2013-08-24 19:46:00,
2013-08-24 14:51:00,79.3,70.3,29.12,South,180,0.0,0.0,74,0.00,CLR,,0.14,WeatherDisplay:10.37,2013-08-24 19:51:00,
2013-08-24 14:56:00,79.5,69.7,29.12,South,180,1.1,0.0,72,0.00,CLR,,0.14,WeatherDisplay:10.37,2013-08-24 19:56:00,
2013-08-24 15:01:00,79.7,69.9,29.11,SE,135,1.1,0.0,72,0.00,CLR,,0.14,WeatherDisplay:10.37,2013-08-24 20:01:00,
2013-08-24 15:06:00,80.2,69.1,29.11,South,180,19.6,19.6,69,0.00,CLR,,0.14,WeatherDisplay:10.37,2013-08-24 20:06:00,
2013-08-24 15:11:00,80.8,69.7,29.11,South,180,2.3,0.0,69,0.00,CLR,,0.14,WeatherDisplay:10.37,2013-08-24 20:11:00,
2013-08-24 15:16:00,80.6,68.6,29.11,South,180,19.6,19.6,67,0.00,CLR,,0.14,WeatherDisplay:10.37,2013-08-24 20:16:00,
2013-08-24 15:21:00,81.0,69.4,29.11,South,180,19.6,19.6,68,0.00,CLR,,0.14,WeatherDisplay:10.37,2013-08-24 20:21:00,
2013-08-24 15:26:00,81.0,69.8,29.10,South,180,18.4,0.0,69,0.00,CLR,,0.14,WeatherDisplay:10.37,2013-08-24 20:26:00,
2013-08-24 15:31:00,81.3,69.7,29.10,South,180,1.1,0.0,68,0.00,CLR,,0.14,WeatherDisplay:10.37,2013-08-24 20:31:00,
2013-08-24 15:36:00,81.5,70.8,29.10,South,180,1.1,0.0,70,0.00,CLR,,0.14,WeatherDisplay:10.37,2013-08-24 20:36:00,
2013-08-24 15:41:00,81.3,70.6,29.10,South,180,1.1,0.0,70,0.00,CLR,,0.14,WeatherDisplay:10.37,2013-08-24 20:41:00,
2013-08-24 15:46:00,81.5,71.2,29.10,South,180,1.1,0.0,71,0.00,CLR,,0.14,WeatherDisplay:10.37,2013-08-24 20:46:00,
2013-08-24 15:51:00,81.7,71.4,29.09,South,180,15.0,0.0,71,0.00,CLR,,0.14,WeatherDisplay:10.37,2013-08-24 20:51:00,
2013-08-24 15:56:00,82.0,71.7,29.09,South,180,0.0,0.0,71,0.00,CLR,,0.14,WeatherDisplay:10.37,2013-08-24 20:56:00,
2013-08-24 16:01:00,81.7,71.4,29.09,South,180,0.0,0.0,71,0.00,CLR,,0.14,WeatherDisplay:10.37,2013-08-24 21:01:00,
2013-08-24 16:06:00,82.2,71.0,29.09,South,180,1.1,0.0,69,0.00,CLR,,0.14,WeatherDisplay:10.37,2013-08-24 21:06:00,
2013-08-24 16:11:00,83.3,70.3,29.09,South,180,1.1,0.0,65,0.00,CLR,,0.14,WeatherDisplay:10.37,2013-08-24 21:11:00,
2013-08-24 16:16:00,83.7,70.6,29.09,South,180,23.0,23.0,65,0.00,CLR,,0.14,WeatherDisplay:10.37,2013-08-24 21:16:00,
2013-08-24 16:21:00,84.6,70.6,29.10,South,180,11.5,0.0,63,0.00,CLR,,0.14,WeatherDisplay:10.37,2013-08-24 21:21:00,
2013-08-24 16:26:00,85.1,70.6,29.09,SW,225,0.0,0.0,62,0.00,CLR,,0.14,WeatherDisplay:10.37,2013-08-24 21:26:00,
2013-08-24 16:31:00,85.3,69.3,29.09,South,180,23.0,23.0,59,0.00,CLR,,0.14,WeatherDisplay:10.37,2013-08-24 21:31:00,
2013-08-24 16:36:00,84.9,70.0,29.09,South,180,1.1,0.0,61,0.00,CLR,,0.14,WeatherDisplay:10.37,2013-08-24 21:36:00,
2013-08-24 16:41:00,84.6,70.6,29.09,South,180,0.0,0.0,63,0.00,CLR,,0.14,WeatherDisplay:10.37,2013-08-24 21:41:00,
2013-08-24 16:46:00,84.9,70.0,29.08,SE,135,20.7,20.7,61,0.00,CLR,,0.14,WeatherDisplay:10.37,2013-08-24 21:46:00,
2013-08-24 16:51:00,85.6,70.2,29.08,South,180,17.3,17.3,60,0.00,CLR,,0.14,WeatherDisplay:10.37,2013-08-24 21:51:00,
2013-08-24 16:56:00,85.5,70.0,29.08,SW,225,17.3,0.0,60,0.00,CLR,,0.14,WeatherDisplay:10.37,2013-08-24 21:56:00,
2013-08-24 17:01:00,85.3,69.3,29.08,SW,225,19.6,19.6,59,0.00,CLR,,0.14,WeatherDisplay:10.37,2013-08-24 22:01:00,
2013-08-24 17:06:00,85.3,70.3,29.08,SW,225,1.1,0.0,61,0.00,CLR,,0.14,WeatherDisplay:10.37,2013-08-24 22:06:00,
2013-08-24 17:11:00,85.3,69.8,29.09,South,180,17.3,17.3,60,0.00,CLR,,0.14,WeatherDisplay:10.37,2013-08-24 22:11:00,
2013-08-24 17:16:00,85.3,69.8,29.09,South,180,24.2,24.2,60,0.05,RA,,0.19,WeatherDisplay:10.37,2013-08-24 22:16:00,
2013-08-24 17:21:00,85.3,69.8,29.09,South,180,19.6,0.0,60,0.05,RA,,0.19,WeatherDisplay:10.37,2013-08-24 22:21:00,
2013-08-24 17:26:00,85.3,70.3,29.09,South,180,17.3,17.3,61,0.05,CLR,,0.19,WeatherDisplay:10.37,2013-08-24 22:26:00,
2013-08-24 17:31:00,84.2,70.2,29.09,South,180,20.7,20.7,63,0.05,CLR,,0.19,WeatherDisplay:10.37,2013-08-24 22:31:00,
2013-08-24 17:36:00,84.6,70.1,29.09,South,180,0.0,0.0,62,0.05,CLR,,0.19,WeatherDisplay:10.37,2013-08-24 22:36:00,
2013-08-24 17:41:00,84.9,70.9,29.08,SW,225,1.1,0.0,63,0.05,CLR,,0.19,WeatherDisplay:10.37,2013-08-24 22:41:00,
2013-08-24 17:46:00,84.6,70.6,29.08,South,180,10.4,10.4,63,0.05,CLR,,0.19,WeatherDisplay:10.37,2013-08-24 22:46:00,
2013-08-24 17:51:00,84.2,70.2,29.09,South,180,1.1,0.0,63,0.05,CLR,,0.19,WeatherDisplay:10.37,2013-08-24 22:51:00,
2013-08-24 17:56:00,84.6,70.6,29.08,SW,225,11.5,0.0,63,0.05,CLR,,0.19,WeatherDisplay:10.37,2013-08-24 22:56:00,
2013-08-24 18:01:00,84.2,70.7,29.08,SE,135,19.6,19.6,64,0.05,CLR,,0.19,WeatherDisplay:10.37,2013-08-24 23:01:00,
2013-08-24 18:06:00,83.7,70.6,29.08,SW,225,1.1,0.0,65,0.05,CLR,,0.19,WeatherDisplay:10.37,2013-08-24 23:06:00,
2013-08-24 18:11:00,83.5,70.9,29.08,SW,225,1.1,6.9,66,0.05,CLR,,0.19,WeatherDisplay:10.37,2013-08-24 23:11:00,
2013-08-24 18:16:00,83.3,70.3,29.08,South,180,20.7,20.7,65,0.00,CLR,,0.19,WeatherDisplay:10.37,2013-08-24 23:16:00,
2013-08-24 18:21:00,83.3,70.8,29.08,South,180,19.6,0.0,66,0.00,CLR,,0.19,WeatherDisplay:10.37,2013-08-24 23:21:00,
2013-08-24 18:26:00,83.5,70.9,29.08,South,180,0.0,0.0,66,0.00,CLR,,0.19,WeatherDisplay:10.37,2013-08-24 23:26:00,
2013-08-24 18:31:00,83.3,71.2,29.08,South,180,9.2,0.0,67,0.00,CLR,,0.19,WeatherDisplay:10.37,2013-08-24 23:31:00,
2013-08-24 18:36:00,82.6,71.4,29.08,South,180,0.0,0.0,69,0.00,CLR,,0.19,WeatherDisplay:10.37,2013-08-24 23:36:00,
2013-08-24 18:41:00,82.2,71.0,29.08,South,180,15.0,15.0,69,0.00,CLR,,0.19,WeatherDisplay:10.37,2013-08-24 23:41:00,
2013-08-24 18:46:00,82.2,71.5,29.08,South,180,10.4,10.4,70,0.00,CLR,,0.19,WeatherDisplay:10.37,2013-08-24 23:46:00,
2013-08-24 18:51:00,82.6,71.4,29.08,South,180,0.0,0.0,69,0.00,CLR,,0.19,WeatherDisplay:10.37,2013-08-24 23:51:00,
2013-08-24 18:56:00,82.4,71.2,29.07,SW,225,1.1,0.0,69,0.00,CLR,,0.19,WeatherDisplay:10.37,2013-08-24 23:56:00,
2013-08-24 19:01:00,82.2,71.0,29.08,South,180,1.1,0.0,69,0.00,CLR,,0.19,WeatherDisplay:10.37,2013-08-25 00:01:00,
2013-08-24 19:06:00,82.0,71.3,29.07,South,180,18.4,18.4,70,0.00,CLR,,0.19,WeatherDisplay:10.37,2013-08-25 00:06:00,
2013-08-24 19:11:00,82.0,71.3,29.08,South,180,19.6,19.6,70,0.00,CLR,,0.19,WeatherDisplay:10.37,2013-08-25 00:11:00,
2013-08-24 19:16:00,81.7,71.8,29.07,South,180,0.0,0.0,72,0.00,CLR,,0.19,WeatherDisplay:10.37,2013-08-25 00:16:00,
2013-08-24 19:21:00,81.5,71.6,29.07,South,180,17.3,17.3,72,0.00,CLR,,0.19,WeatherDisplay:10.37,2013-08-25 00:21:00,
2013-08-24 19:26:00,81.3,71.4,29.07,SW,225,10.4,0.0,72,0.00,CLR,,0.19,WeatherDisplay:10.37,2013-08-25 00:26:00,
2013-08-24 19:31:00,81.3,71.8,29.06,SW,225,18.4,18.4,73,0.00,CLR,,0.19,WeatherDisplay:10.37,2013-08-25 00:31:00,
2013-08-24 19:36:00,81.3,71.8,29.07,South,180,17.3,17.3,73,0.00,CLR,,0.19,WeatherDisplay:10.37,2013-08-25 00:36:00,
2013-08-24 19:41:00,81.1,71.7,29.06,South,180,15.0,0.0,73,0.00,CLR,,0.19,WeatherDisplay:10.37,2013-08-25 00:41:00,
2013-08-24 19:46:00,81.0,71.5,29.07,South,180,1.1,0.0,73,0.00,CLR,,0.19,WeatherDisplay:10.37,2013-08-25 00:46:00,
2013-08-24 19:51:00,81.0,71.9,29.07,South,180,1.1,0.0,74,0.00,CLR,,0.19,WeatherDisplay:10.37,2013-08-25 00:51:00,
2013-08-24 19:56:00,81.0,71.5,29.07,South,180,15.0,15.0,73,0.00,CLR,,0.19,WeatherDisplay:10.37,2013-08-25 00:56:00,
2013-08-24 20:01:00,81.0,71.5,29.07,South,180,10.4,10.4,73,0.00,CLR,,0.19,WeatherDisplay:10.37,2013-08-25 01:01:00,
2013-08-24 20:06:00,80.8,71.7,29.07,South,180,10.4,0.0,74,0.00,CLR,,0.19,WeatherDisplay:10.37,2013-08-25 01:06:00,
2013-08-24 20:11:00,80.6,71.5,29.07,South,180,1.1,0.0,74,0.00,CLR,,0.19,WeatherDisplay:10.37,2013-08-25 01:11:00,
2013-08-24 20:16:00,80.4,71.8,29.07,SW,225,1.1,0.0,75,0.00,CLR,,0.19,WeatherDisplay:10.37,2013-08-25 01:16:00,
2013-08-24 20:21:00,80.2,72.0,29.07,SW,225,0.0,0.0,76,0.00,CLR,,0.19,WeatherDisplay:10.37,2013-08-25 01:21:00,
2013-08-24 20:26:00,80.1,72.2,29.07,South,180,12.7,0.0,77,0.00,CLR,,0.19,WeatherDisplay:10.37,2013-08-25 01:26:00,
2013-08-24 20:31:00,80.1,72.2,29.07,South,180,0.0,0.0,77,0.00,CLR,,0.19,WeatherDisplay:10.37,2013-08-25 01:31:00,
2013-08-24 20:36:00,79.9,72.0,29.07,South,180,0.0,0.0,77,0.00,CLR,,0.19,WeatherDisplay:10.37,2013-08-25 01:36:00,
2013-08-24 20:41:00,79.9,72.0,29.07,South,180,17.3,17.3,77,0.00,CLR,,0.19,WeatherDisplay:10.37,2013-08-25 01:41:00,
2013-08-24 20:46:00,79.9,72.0,29.07,South,180,1.1,0.0,77,0.00,CLR,,0.19,WeatherDisplay:10.37,2013-08-25 01:46:00,
2013-08-24 20:51:00,79.7,72.2,29.06,South,180,1.1,0.0,78,0.00,CLR,,0.19,WeatherDisplay:10.37,2013-08-25 01:51:00,
2013-08-24 20:56:00,79.7,71.8,29.07,South,180,16.1,0.0,77,0.00,CLR,,0.19,WeatherDisplay:10.37,2013-08-25 01:56:00,
2013-08-24 21:01:00,79.7,72.2,29.07,South,180,18.4,0.0,78,0.00,CLR,,0.19,WeatherDisplay:10.37,2013-08-25 02:01:00,
2013-08-24 21:06:00,79.7,72.2,29.07,SW,225,19.6,19.6,78,0.00,CLR,,0.19,WeatherDisplay:10.37,2013-08-25 02:06:00,
2013-08-24 21:11:00,79.5,72.1,29.07,SW,225,18.4,0.0,78,0.00,CLR,,0.19,WeatherDisplay:10.37,2013-08-25 02:11:00,
2013-08-24 21:16:00,79.5,72.1,29.06,SW,225,20.7,0.0,78,0.00,CLR,,0.19,WeatherDisplay:10.37,2013-08-25 02:16:00,
2013-08-24 21:21:00,79.5,72.1,29.06,South,180,16.1,16.1,78,0.00,CLR,,0.19,WeatherDisplay:10.37,2013-08-25 02:21:00,
2013-08-24 21:26:00,79.0,72.3,29.06,South,180,16.1,0.0,80,0.00,CLR,,0.19,WeatherDisplay:10.37,2013-08-25 02:26:00,
2013-08-24 21:31:00,79.0,72.3,29.06,South,180,17.3,17.3,80,0.00,CLR,,0.19,WeatherDisplay:10.37,2013-08-25 02:31:00,
2013-08-24 21:36:00,79.0,72.3,29.06,SE,135,18.4,0.0,80,0.00,CLR,,0.19,WeatherDisplay:10.37,2013-08-25 02:36:00,
2013-08-24 21:41:00,79.0,72.3,29.06,South,180,1.1,6.9,80,0.00,CLR,,0.19,WeatherDisplay:10.37,2013-08-25 02:41:00,
2013-08-24 21:46:00,78.8,72.1,29.06,South,180,1.1,0.0,80,0.00,CLR,,0.19,WeatherDisplay:10.37,2013-08-25 02:46:00,
2013-08-24 21:51:00,78.6,71.9,29.06,South,180,0.0,0.0,80,0.00,CLR,,0.19,WeatherDisplay:10.37,2013-08-25 02:51:00,
2013-08-24 21:56:00,78.8,72.1,29.06,SW,225,19.6,0.0,80,0.00,CLR,,0.19,WeatherDisplay:10.37,2013-08-25 02:56:00,
2013-08-24 22:01:00,78.8,72.1,29.06,SW,225,10.4,0.0,80,0.00,CLR,,0.19,WeatherDisplay:10.37,2013-08-25 03:01:00,
2013-08-24 22:06:00,78.6,71.9,29.06,South,180,1.1,0.0,80,0.00,CLR,,0.19,WeatherDisplay:10.37,2013-08-25 03:06:00,
2013-08-24 22:11:00,78.8,72.1,29.05,South,180,17.3,17.3,80,0.00,CLR,,0.19,WeatherDisplay:10.37,2013-08-25 03:11:00,
2013-08-24 22:16:00,78.8,72.1,29.06,South,180,1.1,0.0,80,0.00,CLR,,0.19,WeatherDisplay:10.37,2013-08-25 03:16:00,
2013-08-24 22:21:00,78.6,71.9,29.06,SW,225,1.1,0.0,80,0.00,CLR,,0.19,WeatherDisplay:10.37,2013-08-25 03:21:00,
2013-08-24 22:26:00,78.6,71.9,29.06,South,180,0.0,0.0,80,0.00,CLR,,0.19,WeatherDisplay:10.37,2013-08-25 03:26:00,
2013-08-24 22:31:00,78.6,71.9,29.05,South,180,5.8,0.0,80,0.00,CLR,,0.19,WeatherDisplay:10.37,2013-08-25 03:31:00,
2013-08-24 22:36:00,78.6,71.9,29.05,South,180,16.1,0.0,80,0.00,CLR,,0.19,WeatherDisplay:10.37,2013-08-25 03:36:00,
2013-08-24 22:41:00,78.6,71.9,29.06,South,180,1.1,0.0,80,0.00,CLR,,0.19,WeatherDisplay:10.37,2013-08-25 03:41:00,
2013-08-24 22:46:00,78.4,71.8,29.05,South,180,0.0,0.0,80,0.00,CLR,,0.19,WeatherDisplay:10.37,2013-08-25 03:46:00,
2013-08-24 22:51:00,78.4,71.8,29.05,South,180,1.1,0.0,80,0.00,CLR,,0.19,WeatherDisplay:10.37,2013-08-25 03:51:00,
2013-08-24 22:56:00,78.4,71.8,29.06,SW,225,0.0,0.0,80,0.00,CLR,,0.19,WeatherDisplay:10.37,2013-08-25 03:56:00,
2013-08-24 23:01:00,78.4,71.8,29.05,South,180,1.1,0.0,80,0.00,CLR,,0.19,WeatherDisplay:10.37,2013-08-25 04:01:00,
2013-08-24 23:06:00,78.3,71.6,29.05,SW,225,0.0,0.0,80,0.00,CLR,,0.19,WeatherDisplay:10.37,2013-08-25 04:06:00,
2013-08-24 23:11:00,78.4,71.8,29.06,SW,225,0.0,0.0,80,0.00,CLR,,0.19,WeatherDisplay:10.37,2013-08-25 04:11:00,
2013-08-24 23:16:00,78.3,71.6,29.06,SW,225,1.1,0.0,80,0.00,CLR,,0.19,WeatherDisplay:10.37,2013-08-25 04:16:00,
2013-08-24 23:21:00,78.3,71.9,29.06,South,180,0.0,0.0,81,0.00,CLR,,0.19,WeatherDisplay:10.37,2013-08-25 04:21:00,
2013-08-24 23:26:00,78.3,71.6,29.06,South,180,0.0,0.0,80,0.00,CLR,,0.19,WeatherDisplay:10.37,2013-08-25 04:26:00,
2013-08-24 23:31:00,78.3,71.9,29.06,South,180,1.1,0.0,81,0.00,CLR,,0.19,WeatherDisplay:10.37,2013-08-25 04:31:00,
2013-08-24 23:36:00,78.1,71.8,29.06,SW,225,0.0,0.0,81,0.00,CLR,,0.19,WeatherDisplay:10.37,2013-08-25 04:36:00,
2013-08-24 23:41:00,78.1,71.8,29.06,SW,225,0.0,0.0,81,0.00,CLR,,0.19,WeatherDisplay:10.37,2013-08-25 04:41:00,
2013-08-24 23:46:00,78.1,71.8,29.06,South,180,0.0,0.0,81,0.00,CLR,,0.19,WeatherDisplay:10.37,2013-08-25 04:46:00,
2013-08-24 23:51:00,78.1,72.1,29.06,South,180,0.0,0.0,82,0.00,CLR,,0.19,WeatherDisplay:10.37,2013-08-25 04:51:00,
2013-08-24 23:56:00,78.1,71.8,29.06,South,180,0.0,0.0,81,0.00,CLR,,0.19,WeatherDisplay:10.37,2013-08-25 04:56:00,